createdAt,value
2019-02-22T00:01:16.670Z,63.70
2019-02-22T00:03:48.413Z,59.27
2019-02-22T00:06:20.104Z,65.67
2019-02-22T00:08:51.785Z,62.33
2019-02-22T00:11:23.520Z,59.73
2019-02-22T00:13:55.191Z,63.40
2019-02-22T00:16:26.869Z,61.50
2019-02-22T00:18:58.620Z,61.90
2019-02-22T00:21:30.292Z,61.57
2019-02-22T00:24:01.985Z,66.20
2019-02-22T00:26:33.682Z,72.13
2019-02-22T00:29:05.456Z,69.53
2019-02-22T00:31:37.194Z,67.50
2019-02-22T00:34:08.973Z,69.93
2019-02-22T00:36:40.646Z,69.90
2019-02-22T00:39:12.488Z,67.83
2019-02-22T00:41:44.232Z,71.00
2019-02-22T00:44:15.931Z,63.80
2019-02-22T00:46:47.646Z,63.40
2019-02-22T00:49:19.366Z,62.13
2019-02-22T00:51:51.044Z,65.33
2019-02-22T00:54:22.804Z,69.13
2019-02-22T00:56:54.553Z,82.83
2019-02-22T00:59:26.328Z,79.53
2019-02-22T01:01:58.039Z,89.20
2019-02-22T01:04:29.713Z,81.37
2019-02-22T01:07:01.398Z,84.87
2019-02-22T01:09:33.140Z,81.30
2019-02-22T01:12:04.837Z,84.47
2019-02-22T01:14:36.525Z,86.33
2019-02-22T01:17:08.224Z,102.53
2019-02-22T01:19:40.001Z,124.47
2019-02-22T01:22:11.845Z,127.43
2019-02-22T01:24:43.573Z,128.27
2019-02-22T01:27:15.369Z,130.50
2019-02-22T01:29:47.137Z,136.17
2019-02-22T01:32:18.935Z,152.03
2019-02-22T01:34:50.723Z,153.87
2019-02-22T01:37:22.487Z,149.80
2019-02-22T01:39:54.276Z,132.33
2019-02-22T01:42:26.148Z,147.27
2019-02-22T01:44:57.829Z,149.63
2019-02-22T01:47:29.603Z,137.40
2019-02-22T01:50:01.292Z,142.93
2019-02-22T01:52:33.070Z,149.27
2019-02-22T01:55:04.876Z,142.97
2019-02-22T01:57:36.560Z,163.97
2019-02-22T02:00:08.563Z,176.70
2019-02-22T02:02:40.276Z,169.63
2019-02-22T02:05:12.228Z,171.50
2019-02-22T02:07:44.078Z,145.10
2019-02-22T02:10:15.790Z,151.83
2019-02-22T02:12:47.512Z,152.60
2019-02-22T02:15:19.209Z,172.43
2019-02-22T02:17:50.902Z,161.07
2019-02-22T02:20:22.640Z,141.57
2019-02-22T02:22:54.426Z,165.60
2019-02-22T02:25:26.121Z,137.80
2019-02-22T02:27:57.922Z,147.47
2019-02-22T02:30:29.614Z,134.23
2019-02-22T02:33:01.390Z,140.43
2019-02-22T02:35:33.099Z,136.50
2019-02-22T02:38:04.808Z,169.03
2019-02-22T02:40:36.525Z,152.00
2019-02-22T02:43:08.336Z,167.53
2019-02-22T02:45:40.186Z,164.97
2019-02-22T02:48:11.930Z,152.47
2019-02-22T02:50:43.700Z,202.77
2019-02-22T02:53:15.446Z,174.87
2019-02-22T02:55:47.269Z,171.97
2019-02-22T02:58:19.147Z,168.43
2019-02-22T03:00:50.938Z,154.53
2019-02-22T03:03:22.650Z,134.83
2019-02-22T03:06:25.734Z,127.83
2019-02-22T03:08:57.536Z,145.83
2019-02-22T03:11:29.322Z,124.80
2019-02-22T03:14:01.034Z,130.67
2019-02-22T03:16:32.813Z,133.60
2019-02-22T03:19:04.488Z,135.27
2019-02-22T03:21:36.325Z,245.43
2019-02-22T03:24:08.022Z,140.80
2019-02-22T03:26:39.793Z,154.13
2019-02-22T03:29:11.492Z,172.13
2019-02-22T03:31:43.174Z,154.63
2019-02-22T03:34:14.888Z,169.13
2019-02-22T03:36:46.665Z,144.07
2019-02-22T03:39:18.414Z,125.60
2019-02-22T03:41:50.187Z,118.67
2019-02-22T03:44:21.909Z,129.07
2019-02-22T03:46:53.607Z,213.97
2019-02-22T03:49:25.294Z,137.73
2019-02-22T03:51:57.490Z,128.87
2019-02-22T03:54:29.286Z,182.30
2019-02-22T03:57:01.019Z,157.30
2019-02-22T03:59:32.835Z,131.47
2019-02-22T04:02:04.634Z,144.97
2019-02-22T04:04:36.565Z,152.67
2019-02-22T04:07:08.299Z,145.00
2019-02-22T04:09:40.046Z,165.80
2019-02-22T04:12:11.775Z,114.90
2019-02-22T04:14:43.468Z,190.10
2019-02-22T04:17:15.230Z,128.70
2019-02-22T04:19:46.960Z,106.47
2019-02-22T04:22:18.618Z,130.30
2019-02-22T04:24:50.403Z,140.13
2019-02-22T04:27:22.094Z,127.80
2019-02-22T04:29:53.801Z,129.20
2019-02-22T04:32:25.472Z,222.75
2019-02-22T04:34:57.278Z,131.73
2019-02-22T04:37:29.052Z,135.77
2019-02-22T04:40:00.770Z,145.60
2019-02-22T04:42:32.511Z,130.03
2019-02-22T04:45:04.267Z,118.07
2019-02-22T04:47:35.949Z,123.43
2019-02-22T04:50:08.257Z,137.60
2019-02-22T04:52:40.057Z,138.87
2019-02-22T04:55:11.779Z,127.37
2019-02-22T04:57:43.570Z,147.57
2019-02-22T05:00:15.359Z,117.57
2019-02-22T05:02:47.009Z,98.00
2019-02-22T05:05:18.744Z,93.83
2019-02-22T05:07:50.533Z,105.07
2019-02-22T05:10:22.244Z,97.53
2019-02-22T05:12:53.998Z,139.07
2019-02-22T05:15:25.775Z,95.03
2019-02-22T05:17:57.505Z,220.63
2019-02-22T05:20:29.239Z,106.63
2019-02-22T05:23:04.431Z,165.50
2019-02-22T05:25:34.344Z,101.27
2019-02-22T05:28:06.076Z,128.57
2019-02-22T05:30:37.777Z,103.90
2019-02-22T05:33:09.562Z,104.47
2019-02-22T05:35:41.258Z,98.63
2019-02-22T05:38:12.952Z,96.97
2019-02-22T05:40:44.645Z,98.77
2019-02-22T05:43:16.429Z,92.27
2019-02-22T05:45:48.311Z,98.70
2019-02-22T05:48:19.997Z,100.60
2019-02-22T05:50:51.857Z,116.23
2019-02-22T05:53:23.642Z,84.30
2019-02-22T05:55:55.371Z,82.47
2019-02-22T05:58:27.161Z,83.63
2019-02-22T06:00:58.929Z,106.37
2019-02-22T06:03:30.696Z,96.73
2019-02-22T06:06:02.542Z,108.73
2019-02-22T06:08:34.240Z,113.83
2019-02-22T06:11:05.902Z,89.63
2019-02-22T06:13:37.690Z,85.23
2019-02-22T06:16:09.430Z,93.37
2019-02-22T06:18:41.214Z,79.13
2019-02-22T06:21:15.273Z,90.03
2019-02-22T06:23:46.387Z,98.70
2019-02-22T06:26:18.110Z,111.37
2019-02-22T06:28:49.948Z,89.73
2019-02-22T06:31:21.728Z,99.13
2019-02-22T06:33:53.584Z,75.47
2019-02-22T06:36:25.298Z,94.87
2019-02-22T06:38:56.984Z,91.00
2019-02-22T06:41:28.807Z,84.43
2019-02-22T06:44:00.613Z,93.20
2019-02-22T06:46:32.351Z,87.23
2019-02-22T06:49:04.129Z,98.00
2019-02-22T06:51:35.854Z,95.77
2019-02-22T06:54:07.713Z,90.73
2019-02-22T06:56:39.500Z,76.83
2019-02-22T06:59:12.603Z,106.13
2019-02-22T07:01:44.424Z,94.03
2019-02-22T07:04:16.311Z,86.97
2019-02-22T07:06:48.635Z,88.90
2019-02-22T07:09:20.451Z,82.83
2019-02-22T07:12:07.045Z,72.43
2019-02-22T07:14:42.057Z,71.57
2019-02-22T07:17:13.960Z,69.03
2019-02-22T07:19:45.687Z,75.57
2019-02-22T07:22:17.435Z,63.67
2019-02-22T07:24:52.798Z,83.77
2019-02-22T07:27:39.500Z,64.77
2019-02-22T07:30:11.695Z,73.00
2019-02-22T07:32:45.405Z,65.37
2019-02-22T07:35:17.191Z,70.93
2019-02-22T07:37:48.922Z,70.43
2019-02-22T07:40:20.710Z,67.47
2019-02-22T07:42:52.484Z,70.87
2019-02-22T07:45:24.255Z,62.83
2019-02-22T07:47:55.999Z,62.50
2019-02-22T07:50:27.692Z,62.93
2019-02-22T07:53:01.942Z,66.33
2019-02-22T07:55:33.652Z,60.37
2019-02-22T07:58:05.459Z,49.47
2019-02-22T08:00:37.252Z,55.60
2019-02-22T08:03:09.053Z,46.37
2019-02-22T08:05:40.766Z,60.03
2019-02-22T08:08:12.508Z,80.70
2019-02-22T08:10:51.735Z,60.27
2019-02-22T08:13:23.462Z,58.20
2019-02-22T08:15:55.110Z,64.37
2019-02-22T08:18:26.778Z,69.97
2019-02-22T08:20:58.504Z,66.07
2019-02-22T08:23:30.628Z,87.57
2019-02-22T08:26:02.440Z,64.17
2019-02-22T08:28:34.215Z,79.43
2019-02-22T08:31:05.873Z,68.37
2019-02-22T08:33:37.661Z,62.90
2019-02-22T08:36:09.425Z,67.17
2019-02-22T08:38:41.187Z,63.33
2019-02-22T08:41:12.928Z,58.13
2019-02-22T08:43:44.808Z,61.40
2019-02-22T08:46:16.552Z,78.50
2019-02-22T08:48:48.328Z,82.50
2019-02-22T08:51:20.123Z,73.73
2019-02-22T08:53:51.813Z,79.87
2019-02-22T08:56:23.537Z,69.80
2019-02-22T08:58:55.195Z,74.30
2019-02-22T09:01:26.938Z,63.90
2019-02-22T09:03:58.643Z,64.03
2019-02-22T09:06:30.379Z,59.73
2019-02-22T09:09:02.111Z,72.47
2019-02-22T09:11:33.849Z,63.30
2019-02-22T09:14:05.666Z,65.03
2019-02-22T09:16:37.627Z,70.37
2019-02-22T09:19:09.355Z,54.77
2019-02-22T09:21:41.113Z,61.83
2019-02-22T09:24:12.923Z,76.70
2019-02-22T09:26:44.581Z,87.03
2019-02-22T09:29:16.295Z,63.27
2019-02-22T09:31:48.088Z,52.00
2019-02-22T09:34:19.865Z,59.87
2019-02-22T09:36:51.546Z,64.30
2019-02-22T09:39:23.447Z,55.80
2019-02-22T09:41:55.202Z,67.97
2019-02-22T09:44:26.972Z,78.43
2019-02-22T09:46:58.702Z,70.30
2019-02-22T09:49:30.443Z,80.40
2019-02-22T09:52:02.146Z,73.77
2019-02-22T09:54:33.978Z,70.50
2019-02-22T09:57:05.734Z,71.60
2019-02-22T09:59:37.554Z,68.87
2019-02-22T10:02:09.272Z,61.43
2019-02-22T10:04:41.043Z,73.87
2019-02-22T10:07:12.734Z,75.77
2019-02-22T10:09:44.656Z,71.83
2019-02-22T10:12:16.318Z,87.77
2019-02-22T10:14:48.104Z,89.47
2019-02-22T10:17:20.925Z,87.83
2019-02-22T10:19:52.733Z,97.40
2019-02-22T10:22:24.472Z,98.30
2019-02-22T10:24:56.251Z,83.17
2019-02-22T10:27:27.970Z,70.17
2019-02-22T10:29:59.811Z,76.17
2019-02-22T10:32:32.997Z,65.33
2019-02-22T10:35:04.715Z,60.80
2019-02-22T10:37:38.137Z,64.53
2019-02-22T10:40:11.374Z,54.63
2019-02-22T10:42:43.223Z,56.47
2019-02-22T10:45:15.111Z,55.50
2019-02-22T10:47:46.891Z,57.27
2019-02-22T10:50:18.683Z,55.00
2019-02-22T10:53:01.445Z,44.57
2019-02-22T10:55:24.007Z,48.83
2019-02-22T10:57:55.889Z,55.23
2019-02-22T11:00:27.666Z,51.70
2019-02-22T11:02:59.453Z,52.40
2019-02-22T11:05:31.120Z,51.93
2019-02-22T11:08:02.937Z,48.80
2019-02-22T11:10:36.883Z,48.17
2019-02-22T11:13:08.604Z,41.10
2019-02-22T11:15:41.282Z,46.93
2019-02-22T11:18:16.038Z,42.05
2019-02-22T11:20:49.540Z,47.53
2019-02-22T11:23:22.207Z,41.67
2019-02-22T11:25:55.014Z,41.50
2019-02-22T11:28:26.820Z,40.17
2019-02-22T11:30:58.528Z,32.47
2019-02-22T11:33:30.286Z,38.40
2019-02-22T11:36:01.972Z,50.95
2019-02-22T11:38:33.700Z,32.40
2019-02-22T11:41:05.541Z,36.98
2019-02-22T11:43:37.310Z,35.55
2019-02-22T11:46:09.018Z,34.95
2019-02-22T11:48:40.819Z,30.45
2019-02-22T11:51:12.661Z,30.80
2019-02-22T11:53:44.341Z,34.40
2019-02-22T11:56:16.126Z,26.60
2019-02-22T11:58:47.871Z,32.78
2019-02-22T12:01:19.635Z,32.03
2019-02-22T12:03:53.459Z,32.75
2019-02-22T12:06:25.557Z,32.23
2019-02-22T12:08:57.373Z,31.93
2019-02-22T12:11:29.133Z,31.17
2019-02-22T12:14:00.903Z,30.88
2019-02-22T12:16:32.599Z,34.73
2019-02-22T12:19:04.405Z,36.40
2019-02-22T12:21:36.167Z,34.03
2019-02-22T12:24:07.889Z,34.53
2019-02-22T12:26:39.728Z,36.08
2019-02-22T12:29:11.467Z,34.95
2019-02-22T12:31:43.189Z,37.20
2019-02-22T12:34:14.979Z,28.40
2019-02-22T12:36:46.675Z,32.30
2019-02-22T12:39:18.669Z,36.20
2019-02-22T12:41:50.477Z,36.88
2019-02-22T12:44:24.629Z,32.48
2019-02-22T12:46:56.398Z,37.42
2019-02-22T12:49:28.150Z,37.90
2019-02-22T12:51:59.860Z,35.85
2019-02-22T12:54:31.600Z,38.17
2019-02-22T12:57:03.518Z,34.48
2019-02-22T12:59:35.460Z,32.98
2019-02-22T13:02:07.165Z,37.67
2019-02-22T13:04:38.838Z,39.08
2019-02-22T13:07:10.517Z,36.48
2019-02-22T13:09:42.272Z,35.15
2019-02-22T13:12:16.657Z,39.15
2019-02-22T13:14:47.469Z,35.52
2019-02-22T13:17:30.268Z,39.53
2019-02-22T13:19:52.739Z,34.08
2019-02-22T13:22:24.558Z,35.33
2019-02-22T13:24:56.216Z,36.85
2019-02-22T13:27:27.990Z,32.15
2019-02-22T13:29:59.702Z,36.13
2019-02-22T13:32:31.464Z,34.63
2019-02-22T13:35:03.139Z,37.67
2019-02-22T13:37:34.909Z,35.40
2019-02-22T13:40:07.691Z,36.40
2019-02-22T13:42:40.128Z,32.73
2019-02-22T13:45:11.996Z,29.70
2019-02-22T13:47:43.763Z,34.43
2019-02-22T13:50:15.561Z,35.45
2019-02-22T13:52:47.347Z,34.48
2019-02-22T13:55:19.184Z,40.03
2019-02-22T13:57:50.909Z,34.50
2019-02-22T14:00:22.682Z,34.48
2019-02-22T14:02:54.525Z,37.10
2019-02-22T14:05:26.303Z,39.18
2019-02-22T14:07:58.247Z,37.77
2019-02-22T14:10:29.943Z,39.00
2019-02-22T14:13:01.787Z,36.73
2019-02-22T14:15:37.913Z,44.70
2019-02-22T14:18:07.075Z,32.53
2019-02-22T14:20:39.025Z,39.87
2019-02-22T14:23:10.759Z,38.02
2019-02-22T14:25:42.601Z,35.17
2019-02-22T14:28:14.491Z,39.37
2019-02-22T14:30:46.235Z,34.95
2019-02-22T14:33:18.095Z,34.13
2019-02-22T14:35:50.003Z,32.85
2019-02-22T14:38:22.172Z,31.37
2019-02-22T14:40:55.009Z,33.25
2019-02-22T14:43:26.831Z,31.50
2019-02-22T14:45:58.701Z,32.77
2019-02-22T14:48:30.743Z,32.47
2019-02-22T14:51:02.593Z,26.42
2019-02-22T14:53:34.412Z,31.80
2019-02-22T14:56:06.215Z,30.80
2019-02-22T14:58:38.114Z,28.33
2019-02-22T15:01:09.962Z,28.50
2019-02-22T15:03:41.820Z,28.97
2019-02-22T15:06:13.722Z,27.47
2019-02-22T15:08:45.558Z,25.40
2019-02-22T15:11:18.568Z,25.03
2019-02-22T15:13:50.414Z,19.15
2019-02-22T15:16:39.216Z,18.13
2019-02-22T15:19:11.215Z,20.63
2019-02-22T15:21:43.127Z,21.93
2019-02-22T15:24:14.892Z,19.85
2019-02-22T15:26:47.101Z,19.30
2019-02-22T15:29:19.046Z,20.88
2019-02-22T15:31:50.826Z,17.27
2019-02-22T15:34:22.654Z,19.10
2019-02-22T15:36:54.457Z,23.07
2019-02-22T15:39:26.412Z,18.57
2019-02-22T15:41:58.420Z,19.95
2019-02-22T15:44:30.213Z,16.30
2019-02-22T15:47:11.370Z,18.67
2019-02-22T15:49:35.451Z,19.80
2019-02-22T15:52:07.301Z,18.62
2019-02-22T15:54:39.150Z,20.47
2019-02-22T15:57:10.929Z,20.37
2019-02-22T15:59:42.637Z,20.02
2019-02-22T16:02:14.421Z,16.10
2019-02-22T16:05:05.143Z,20.15
2019-02-22T16:07:44.201Z,22.45
2019-02-22T16:10:10.374Z,19.70
2019-02-22T16:12:42.286Z,22.07
2019-02-22T16:15:15.809Z,21.05
2019-02-22T16:17:48.492Z,21.65
2019-02-22T16:20:20.447Z,27.75
2019-02-22T16:22:52.183Z,25.87
2019-02-22T16:25:23.889Z,22.47
2019-02-22T16:27:55.640Z,25.08
2019-02-22T16:30:31.157Z,31.73
2019-02-22T16:33:03.256Z,35.35
2019-02-22T16:35:35.115Z,31.65
2019-02-22T16:38:06.851Z,33.70
2019-02-22T16:40:38.699Z,35.67
2019-02-22T16:43:10.653Z,37.28
2019-02-22T16:45:42.552Z,36.57
2019-02-22T16:48:14.466Z,33.00
2019-02-22T16:50:46.294Z,37.63
2019-02-22T16:53:18.150Z,32.93
2019-02-22T16:55:50.030Z,36.07
2019-02-22T16:58:21.889Z,41.30
2019-02-22T17:00:53.706Z,34.33
2019-02-22T17:03:25.510Z,37.13
2019-02-22T17:05:57.706Z,40.80
2019-02-22T17:08:35.518Z,37.57
2019-02-22T17:11:08.672Z,40.63
2019-02-22T17:13:56.547Z,39.40
2019-02-22T17:16:28.744Z,38.73
2019-02-22T17:19:02.156Z,33.67
2019-02-22T17:21:34.093Z,41.83
2019-02-22T17:24:06.098Z,39.17
2019-02-22T17:26:38.025Z,38.03
2019-02-22T17:29:09.795Z,33.75
2019-02-22T17:31:41.607Z,36.10
2019-02-22T17:34:13.483Z,42.67
2019-02-22T17:36:45.293Z,36.50
2019-02-22T17:39:17.156Z,37.43
2019-02-22T17:41:48.937Z,38.00
2019-02-22T17:44:20.853Z,45.63
2019-02-22T17:46:57.718Z,39.17
2019-02-22T17:49:27.336Z,37.10
2019-02-22T17:51:59.224Z,37.80
2019-02-22T17:54:31.023Z,41.87
2019-02-22T17:57:02.930Z,44.33
2019-02-22T17:59:34.733Z,43.73
2019-02-22T18:02:06.675Z,46.30
2019-02-22T18:04:38.484Z,44.17
2019-02-22T18:07:10.333Z,42.37
2019-02-22T18:09:42.103Z,45.20
2019-02-22T18:12:13.843Z,43.13
2019-02-22T18:14:48.008Z,42.20
2019-02-22T18:17:19.851Z,44.47
2019-02-22T18:19:51.724Z,39.08
2019-02-22T18:22:26.020Z,50.67
2019-02-22T18:24:56.922Z,42.50
2019-02-22T18:27:28.623Z,48.83
2019-02-22T18:30:00.318Z,45.58
2019-02-22T18:32:32.100Z,52.73
2019-02-22T18:35:03.887Z,40.80
2019-02-22T18:37:35.675Z,45.13
2019-02-22T18:40:09.822Z,46.80
2019-02-22T18:42:41.717Z,46.83
2019-02-22T18:45:13.538Z,48.83
2019-02-22T18:47:45.306Z,46.83
2019-02-22T18:50:17.112Z,42.90
2019-02-22T18:52:48.790Z,44.10
2019-02-22T18:55:20.525Z,58.60
2019-02-22T18:57:52.282Z,52.30
2019-02-22T19:00:24.077Z,54.27
2019-02-22T19:02:55.847Z,57.43
2019-02-22T19:05:27.568Z,55.70
2019-02-22T19:07:59.348Z,62.33
2019-02-22T19:10:31.045Z,64.23
2019-02-22T19:13:02.750Z,65.20
2019-02-22T19:15:34.539Z,87.27
2019-02-22T19:18:06.308Z,82.90
2019-02-22T19:20:39.182Z,86.37
2019-02-22T19:23:10.897Z,74.47
2019-02-22T19:25:42.617Z,71.00
2019-02-22T19:28:14.288Z,69.63
2019-02-22T19:30:46.061Z,77.03
2019-02-22T19:33:17.777Z,80.93
2019-02-22T19:35:49.549Z,84.97
2019-02-22T19:38:21.338Z,101.13
2019-02-22T19:40:53.080Z,120.53
2019-02-22T19:43:24.734Z,130.63
2019-02-22T19:45:56.516Z,161.37
2019-02-22T19:48:28.216Z,162.47
2019-02-22T19:50:59.948Z,167.98
2019-02-22T19:53:31.678Z,181.83
2019-02-22T19:56:03.816Z,167.10
2019-02-22T19:58:35.530Z,169.37
2019-02-22T20:01:07.336Z,175.70
2019-02-22T20:03:39.036Z,164.60
2019-02-22T20:06:10.784Z,180.63
2019-02-22T20:08:42.544Z,159.30
2019-02-22T20:11:14.350Z,169.93
2019-02-22T20:13:46.104Z,154.33
2019-02-22T20:16:17.824Z,140.33
2019-02-22T20:18:49.618Z,157.10
2019-02-22T20:21:21.357Z,136.67
2019-02-22T20:23:53.072Z,137.73
2019-02-22T20:26:24.854Z,131.53
2019-02-22T20:28:56.542Z,121.67
2019-02-22T20:31:28.420Z,122.10
2019-02-22T20:34:00.136Z,119.83
2019-02-22T20:36:31.855Z,132.30
2019-02-22T20:39:05.226Z,121.73
2019-02-22T20:41:36.982Z,120.60
2019-02-22T20:44:08.731Z,111.70
2019-02-22T20:46:40.535Z,120.73
2019-02-22T20:49:12.341Z,127.37
2019-02-22T20:51:44.213Z,121.93
2019-02-22T20:54:16.021Z,125.73
2019-02-22T20:56:47.712Z,119.37
2019-02-22T20:59:19.786Z,112.43
2019-02-22T21:01:51.523Z,123.20
2019-02-22T21:04:23.221Z,115.87
2019-02-22T21:06:54.953Z,111.10
2019-02-22T21:09:26.715Z,125.13
2019-02-22T21:11:58.438Z,112.60
2019-02-22T21:14:30.235Z,111.53
2019-02-22T21:17:01.923Z,106.57
2019-02-22T21:19:33.602Z,117.27
2019-02-22T21:22:05.283Z,109.70
2019-02-22T21:24:36.967Z,99.77
2019-02-22T21:27:08.689Z,95.80
2019-02-22T21:29:40.449Z,102.53
2019-02-22T21:32:12.237Z,94.27
2019-02-22T21:34:43.925Z,109.30
2019-02-22T21:37:15.617Z,108.80
2019-02-22T21:39:47.303Z,100.17
2019-02-22T21:42:20.481Z,114.17
2019-02-22T21:44:52.350Z,105.57
2019-02-22T21:47:24.073Z,108.17
2019-02-22T21:49:55.849Z,106.93
2019-02-22T21:52:27.591Z,111.93
2019-02-22T21:54:59.401Z,102.97
2019-02-22T21:57:31.208Z,101.57
2019-02-22T22:00:02.900Z,103.27
2019-02-22T22:02:34.664Z,110.90
2019-02-22T22:05:06.852Z,107.33
2019-02-22T22:07:38.592Z,109.73
2019-02-22T22:10:10.304Z,103.23
2019-02-22T22:12:42.010Z,105.27
2019-02-22T22:15:13.750Z,99.67
2019-02-22T22:17:45.439Z,104.23
2019-02-22T22:20:17.256Z,104.60
2019-02-22T22:22:49.014Z,97.27
2019-02-22T22:25:20.824Z,109.40
2019-02-22T22:27:52.549Z,105.30
2019-02-22T22:30:24.371Z,93.50
2019-02-22T22:32:56.177Z,103.67
2019-02-22T22:35:27.886Z,98.47
2019-02-22T22:37:59.580Z,107.77
2019-02-22T22:40:31.338Z,99.20
2019-02-22T22:43:03.045Z,105.03
2019-02-22T22:45:34.858Z,92.67
2019-02-22T22:48:06.819Z,101.27
2019-02-22T22:50:38.598Z,118.13
2019-02-22T22:53:10.317Z,99.30
2019-02-22T22:55:42.035Z,106.60
2019-02-22T22:58:14.963Z,103.17
2019-02-22T23:01:07.481Z,81.10
2019-02-22T23:03:39.351Z,92.33
2019-02-22T23:06:12.044Z,99.10
2019-02-22T23:08:44.093Z,89.40
2019-02-22T23:11:15.796Z,99.23
2019-02-22T23:13:47.515Z,91.83
2019-02-22T23:16:19.299Z,83.40
2019-02-22T23:19:01.554Z,88.27
2019-02-22T23:21:24.886Z,84.97
2019-02-22T23:23:56.603Z,81.07
2019-02-22T23:26:28.411Z,88.37
2019-02-22T23:29:01.874Z,84.67
2019-02-22T23:31:33.955Z,71.53
2019-02-22T23:34:05.754Z,80.93
2019-02-22T23:36:37.590Z,76.43
2019-02-22T23:39:09.758Z,87.00
2019-02-22T23:41:41.538Z,67.67
2019-02-22T23:44:13.262Z,68.93
2019-02-22T23:46:45.017Z,82.17
2019-02-22T23:49:16.734Z,72.57
2019-02-22T23:51:48.528Z,82.47
2019-02-22T23:54:20.333Z,81.40
2019-02-22T23:56:52.110Z,80.00
2019-02-22T23:59:23.812Z,74.53
